createdAt,value
2022-09-23T00:02:26.065Z,8.41
2022-09-23T00:04:57.616Z,8.35
2022-09-23T00:07:29.182Z,8.23
2022-09-23T00:10:00.772Z,8.11
2022-09-23T00:12:32.394Z,8.00
2022-09-23T00:15:03.998Z,8.13
2022-09-23T00:17:35.896Z,8.11
2022-09-23T00:20:09.314Z,7.99
2022-09-23T00:22:41.555Z,8.00
2022-09-23T00:25:13.891Z,7.98
2022-09-23T00:27:45.529Z,7.89
2022-09-23T00:30:18.486Z,7.80
2022-09-23T00:32:50.397Z,7.86
2022-09-23T00:35:22.006Z,7.85
2022-09-23T00:37:53.848Z,7.77
2022-09-23T00:40:26.101Z,7.71
2022-09-23T00:42:57.789Z,7.67
2022-09-23T00:45:30.897Z,7.77
2022-09-23T00:48:05.317Z,7.84
2022-09-23T00:50:40.688Z,7.85
2022-09-23T00:53:16.959Z,7.82
2022-09-23T00:55:51.463Z,7.81
2022-09-23T00:58:27.904Z,7.75
2022-09-23T01:01:01.597Z,7.48
2022-09-23T01:03:34.264Z,7.23
2022-09-23T01:06:08.254Z,7.30
2022-09-23T01:08:40.862Z,7.35
2022-09-23T01:11:25.970Z,7.34
2022-09-23T01:14:09.977Z,7.25
2022-09-23T01:16:46.666Z,7.18
2022-09-23T01:19:35.761Z,7.36
2022-09-23T01:22:15.790Z,7.37
2022-09-23T01:25:13.408Z,7.32
2022-09-23T01:28:02.502Z,7.02
2022-09-23T01:30:47.284Z,7.09
2022-09-23T01:33:26.209Z,7.20
2022-09-23T01:36:08.574Z,7.09
2022-09-23T01:38:50.921Z,7.11
2022-09-23T01:41:49.340Z,7.23
2022-09-23T01:44:30.702Z,7.25
2022-09-23T01:47:10.830Z,7.17
2022-09-23T01:49:48.203Z,7.22
2022-09-23T01:52:31.261Z,7.10
2022-09-23T01:55:03.664Z,7.13
2022-09-23T01:57:39.986Z,7.06
2022-09-23T02:00:16.175Z,7.07
2022-09-23T02:02:53.411Z,6.95
2022-09-23T02:05:32.954Z,6.86
2022-09-23T02:08:10.399Z,6.93
2022-09-23T02:10:45.856Z,6.97
2022-09-23T02:13:21.952Z,6.99
2022-09-23T02:15:57.815Z,6.83
2022-09-23T02:18:33.539Z,6.95
2022-09-23T02:21:09.827Z,7.00
2022-09-23T02:23:47.051Z,6.91
2022-09-23T02:26:23.803Z,6.82
2022-09-23T02:29:07.825Z,6.85
2022-09-23T02:31:46.451Z,6.88
2022-09-23T02:34:29.958Z,6.87
2022-09-23T02:37:10.925Z,6.88
2022-09-23T02:39:56.028Z,6.88
2022-09-23T02:42:37.195Z,6.89
2022-09-23T02:45:09.668Z,6.90
2022-09-23T02:47:45.101Z,6.90
2022-09-23T02:50:19.578Z,6.89
2022-09-23T02:52:51.629Z,6.88
2022-09-23T02:55:26.238Z,6.85
2022-09-23T02:57:58.143Z,6.89
2022-09-23T03:00:37.259Z,6.87
2022-09-23T03:03:20.365Z,6.83
2022-09-23T03:05:54.108Z,6.83
2022-09-23T03:08:38.724Z,6.79
2022-09-23T03:11:13.499Z,6.75
2022-09-23T03:13:59.037Z,6.77
2022-09-23T03:16:41.164Z,6.75
2022-09-23T03:19:25.057Z,6.71
2022-09-23T03:22:03.450Z,6.64
2022-09-23T03:24:37.599Z,6.57
2022-09-23T03:27:16.201Z,6.52
2022-09-23T03:29:50.245Z,6.51
2022-09-23T03:32:26.764Z,6.52
2022-09-23T03:35:01.001Z,6.54
2022-09-23T03:37:38.740Z,6.59
2022-09-23T03:40:16.204Z,6.61
2022-09-23T03:42:48.915Z,6.65
2022-09-23T03:45:27.600Z,6.75
2022-09-23T03:47:59.417Z,6.74
2022-09-23T03:50:31.374Z,6.68
2022-09-23T03:53:02.930Z,6.66
2022-09-23T03:55:34.922Z,6.63
2022-09-23T03:58:08.079Z,6.64
2022-09-23T04:00:40.147Z,6.66
2022-09-23T04:03:12.199Z,6.72
2022-09-23T04:05:46.055Z,6.78
2022-09-23T04:08:18.822Z,6.58
2022-09-23T04:10:54.772Z,6.47
2022-09-23T04:13:27.103Z,6.45
2022-09-23T04:15:59.460Z,6.42
2022-09-23T04:18:31.618Z,6.36
2022-09-23T04:21:04.235Z,6.36
2022-09-23T04:23:36.790Z,6.35
2022-09-23T04:26:09.247Z,6.32
2022-09-23T04:28:41.305Z,6.34
2022-09-23T04:31:13.450Z,6.32
2022-09-23T04:33:45.518Z,6.27
2022-09-23T04:36:17.586Z,6.27
2022-09-23T04:38:50.473Z,6.24
2022-09-23T04:41:22.717Z,6.27
2022-09-23T04:43:55.056Z,6.28
2022-09-23T04:46:27.172Z,6.26
2022-09-23T04:49:00.071Z,6.26
2022-09-23T04:51:32.391Z,6.29
2022-09-23T04:54:04.681Z,6.29
2022-09-23T04:56:36.714Z,6.43
2022-09-23T04:59:09.219Z,6.50
2022-09-23T05:01:41.790Z,6.42
2022-09-23T05:04:14.963Z,6.41
2022-09-23T05:06:47.046Z,6.49
2022-09-23T05:09:19.826Z,6.62
2022-09-23T05:11:52.002Z,6.77
2022-09-23T05:14:24.214Z,6.81
2022-09-23T05:16:56.248Z,6.68
2022-09-23T05:19:28.387Z,6.72
2022-09-23T05:22:00.480Z,6.89
2022-09-23T05:24:32.524Z,6.91
2022-09-23T05:27:07.178Z,6.99
2022-09-23T05:29:39.966Z,7.06
2022-09-23T05:32:12.121Z,7.10
2022-09-23T05:34:44.394Z,7.07
2022-09-23T05:37:16.596Z,7.04
2022-09-23T05:39:48.662Z,7.03
2022-09-23T05:42:21.255Z,7.21
2022-09-23T05:44:53.420Z,7.25
2022-09-23T05:47:25.650Z,7.37
2022-09-23T05:50:00.372Z,7.53
2022-09-23T05:52:35.007Z,7.67
2022-09-23T05:55:09.058Z,7.75
2022-09-23T05:57:41.179Z,7.76
2022-09-23T06:00:15.513Z,7.68
2022-09-23T06:02:50.393Z,7.72
2022-09-23T06:05:22.879Z,7.88
2022-09-23T06:07:55.033Z,8.00
2022-09-23T06:10:27.386Z,8.08
2022-09-23T06:12:59.492Z,8.14
2022-09-23T06:15:31.616Z,8.15
2022-09-23T06:18:03.724Z,8.17
2022-09-23T06:20:36.556Z,8.22
2022-09-23T06:23:10.334Z,8.27
2022-09-23T06:25:43.363Z,8.40
2022-09-23T06:28:15.469Z,8.53
2022-09-23T06:30:49.962Z,8.64
2022-09-23T06:33:34.665Z,8.73
2022-09-23T06:36:09.114Z,8.84
2022-09-23T06:38:44.758Z,8.96
2022-09-23T06:41:18.129Z,9.07
2022-09-23T06:43:48.922Z,9.15
2022-09-23T06:46:21.226Z,9.26
2022-09-23T06:48:53.898Z,9.37
2022-09-23T06:51:24.518Z,9.44
2022-09-23T06:53:56.858Z,9.51
2022-09-23T06:56:32.402Z,9.61
2022-09-23T06:59:10.069Z,9.67
2022-09-23T07:01:42.615Z,9.79
2022-09-23T07:04:14.846Z,9.87
2022-09-23T07:06:46.939Z,9.93
2022-09-23T07:09:19.487Z,10.02
2022-09-23T07:11:51.650Z,10.09
2022-09-23T07:14:24.979Z,10.19
2022-09-23T07:16:57.490Z,10.25
2022-09-23T07:19:29.801Z,10.30
2022-09-23T07:22:02.045Z,10.35
2022-09-23T07:24:34.451Z,10.39
2022-09-23T07:27:07.162Z,10.42
2022-09-23T07:29:48.209Z,10.50
2022-09-23T07:32:22.678Z,10.54
2022-09-23T07:34:55.134Z,10.61
2022-09-23T07:37:27.218Z,10.69
2022-09-23T07:39:59.237Z,10.70
2022-09-23T07:42:34.287Z,10.76
2022-09-23T07:45:07.632Z,10.83
2022-09-23T07:47:40.948Z,10.87
2022-09-23T07:50:13.929Z,10.94
2022-09-23T07:52:45.047Z,10.98
2022-09-23T07:55:20.970Z,11.07
2022-09-23T07:57:53.327Z,11.12
2022-09-23T08:00:25.569Z,11.22
2022-09-23T08:02:57.655Z,11.28
2022-09-23T08:05:29.856Z,11.33
2022-09-23T08:08:02.030Z,11.41
2022-09-23T08:10:34.501Z,11.49
2022-09-23T08:13:06.698Z,11.58
2022-09-23T08:15:39.066Z,11.72
2022-09-23T08:18:11.414Z,11.73
2022-09-23T08:20:47.845Z,11.75
2022-09-23T08:23:21.135Z,11.74
2022-09-23T08:26:00.866Z,11.82
2022-09-23T08:28:35.271Z,11.91
2022-09-23T08:31:08.470Z,11.97
2022-09-23T08:33:41.056Z,12.03
2022-09-23T08:36:14.395Z,12.11
2022-09-23T08:38:46.448Z,12.18
2022-09-23T08:41:26.572Z,12.24
2022-09-23T08:44:04.177Z,12.31
2022-09-23T08:46:42.358Z,12.37
2022-09-23T08:49:23.501Z,12.44
2022-09-23T08:51:57.327Z,12.53
2022-09-23T08:54:31.994Z,12.60
2022-09-23T08:57:06.665Z,12.62
2022-09-23T08:59:44.080Z,12.64
2022-09-23T09:02:19.994Z,12.73
2022-09-23T09:04:55.790Z,12.83
2022-09-23T09:07:37.657Z,12.89
2022-09-23T09:10:18.789Z,12.94
2022-09-23T09:12:59.934Z,13.04
2022-09-23T09:15:33.136Z,13.16
2022-09-23T09:18:12.394Z,13.29
2022-09-23T09:20:59.095Z,13.38
2022-09-23T09:23:37.312Z,13.52
2022-09-23T09:26:19.264Z,13.63
2022-09-23T09:29:02.562Z,13.74
2022-09-23T09:31:51.003Z,13.86
2022-09-23T09:34:31.942Z,14.02
2022-09-23T09:37:08.324Z,13.99
2022-09-23T09:39:40.709Z,13.98
2022-09-23T09:42:20.793Z,14.17
2022-09-23T09:44:59.210Z,14.42
2022-09-23T09:47:48.155Z,14.61
2022-09-23T09:50:41.331Z,14.88
2022-09-23T09:53:25.617Z,15.24
2022-09-23T09:56:05.290Z,15.34
2022-09-23T09:58:46.064Z,15.28
2022-09-23T10:01:26.752Z,15.18
2022-09-23T10:04:00.282Z,15.03
2022-09-23T10:06:35.011Z,15.32
2022-09-23T10:09:19.315Z,15.75
2022-09-23T10:15:27.914Z,15.67
2022-09-23T10:17:57.441Z,15.46
2022-09-23T10:20:26.172Z,15.47
2022-09-23T10:22:56.097Z,15.45
2022-09-23T10:25:26.051Z,15.36
2022-09-23T10:27:54.738Z,15.36
2022-09-23T10:30:26.057Z,15.39
2022-09-23T10:32:56.558Z,15.58
2022-09-23T10:35:27.662Z,16.14
2022-09-23T10:37:57.714Z,16.57
2022-09-23T10:40:50.049Z,16.97
2022-09-23T10:43:51.850Z,17.15
2022-09-23T10:46:39.033Z,17.35
2022-09-23T10:49:33.635Z,17.06
2022-09-23T10:52:38.551Z,16.60
2022-09-23T10:55:19.589Z,16.37
2022-09-23T10:58:05.364Z,16.19
2022-09-23T11:00:43.237Z,16.23
2022-09-23T11:03:40.951Z,16.63
2022-09-23T11:06:18.392Z,16.83
2022-09-23T11:09:14.697Z,17.28
2022-09-23T11:11:55.331Z,17.48
2022-09-23T11:14:41.474Z,17.35
2022-09-23T11:17:31.721Z,17.04
2022-09-23T11:20:23.102Z,16.84
2022-09-23T11:23:16.448Z,16.59
2022-09-23T11:25:53.692Z,16.54
2022-09-23T11:28:50.414Z,16.47
2022-09-23T11:31:31.124Z,16.41
2022-09-23T11:34:17.919Z,16.40
2022-09-23T11:36:52.241Z,16.35
2022-09-23T11:39:26.947Z,16.29
2022-09-23T11:41:59.791Z,16.20
2022-09-23T11:44:32.601Z,16.53
2022-09-23T11:47:08.583Z,16.36
2022-09-23T11:49:41.293Z,16.26
2022-09-23T11:52:12.111Z,16.24
2022-09-23T11:54:49.492Z,16.06
2022-09-23T11:57:27.215Z,16.07
2022-09-23T12:00:02.514Z,16.08
2022-09-23T12:03:04.937Z,16.12
2022-09-23T12:05:39.282Z,16.04
2022-09-23T12:08:23.107Z,16.06
2022-09-23T12:10:58.334Z,16.07
2022-09-23T12:13:39.510Z,16.07
2022-09-23T12:16:45.403Z,16.05
2022-09-23T12:19:29.566Z,16.02
2022-09-23T12:22:10.945Z,15.97
2022-09-23T12:24:51.420Z,16.08
2022-09-23T12:27:31.749Z,16.45
2022-09-23T12:30:04.340Z,16.69
2022-09-23T12:32:33.677Z,16.88
2022-09-23T12:35:03.073Z,17.00
2022-09-23T12:37:35.979Z,16.95
2022-09-23T12:40:07.965Z,16.92
2022-09-23T12:42:43.875Z,16.71
2022-09-23T12:45:34.505Z,16.73
2022-09-23T12:48:26.181Z,16.96
2022-09-23T12:51:06.887Z,17.36
2022-09-23T12:54:00.110Z,17.46
2022-09-23T12:57:05.773Z,17.47
2022-09-23T12:59:58.584Z,17.39
2022-09-23T13:02:31.427Z,17.17
2022-09-23T13:05:31.776Z,17.06
2022-09-23T13:08:05.406Z,16.99
2022-09-23T13:10:38.699Z,16.96
2022-09-23T13:13:15.767Z,16.91
2022-09-23T13:15:45.163Z,16.86
2022-09-23T13:18:52.002Z,16.79
2022-09-23T13:22:00.701Z,16.76
2022-09-23T13:24:51.936Z,16.74
2022-09-23T13:27:26.003Z,16.74
2022-09-23T13:30:01.899Z,16.85
2022-09-23T13:32:34.174Z,16.99
2022-09-23T13:35:13.449Z,16.68
2022-09-23T13:37:45.582Z,16.64
2022-09-23T13:40:23.572Z,16.59
2022-09-23T13:42:57.983Z,16.71
2022-09-23T13:45:28.091Z,16.64
2022-09-23T13:48:05.266Z,16.44
2022-09-23T13:50:40.150Z,16.40
2022-09-23T13:53:13.742Z,16.30
2022-09-23T13:55:42.777Z,16.34
2022-09-23T13:58:18.993Z,16.49
2022-09-23T14:00:49.065Z,16.91
2022-09-23T14:03:23.535Z,17.21
2022-09-23T14:05:54.575Z,17.35
2022-09-23T14:08:24.550Z,17.25
2022-09-23T14:10:54.858Z,17.40
2022-09-23T14:13:26.834Z,17.53
2022-09-23T14:15:58.713Z,17.41
2022-09-23T14:18:36.183Z,17.22
2022-09-23T14:21:06.395Z,17.10
2022-09-23T14:23:35.706Z,16.95
2022-09-23T14:26:05.258Z,16.84
2022-09-23T14:28:34.623Z,16.66
2022-09-23T14:31:04.741Z,16.67
2022-09-23T14:33:39.236Z,16.62
2022-09-23T14:36:32.807Z,16.46
2022-09-23T14:39:07.328Z,16.40
2022-09-23T14:41:38.013Z,16.38
2022-09-23T14:44:18.226Z,16.28
2022-09-23T14:46:57.340Z,16.39
2022-09-23T14:49:27.423Z,16.42
2022-09-23T14:52:00.042Z,16.43
2022-09-23T14:54:34.800Z,16.29
2022-09-23T14:57:18.696Z,16.38
2022-09-23T14:59:53.834Z,16.40
2022-09-23T15:02:38.723Z,16.30
2022-09-23T15:05:15.159Z,16.39
2022-09-23T15:07:47.972Z,16.42
2022-09-23T15:10:23.265Z,16.45
2022-09-23T15:12:54.542Z,16.40
2022-09-23T15:15:27.803Z,16.47
2022-09-23T15:18:02.792Z,16.48
2022-09-23T15:20:31.695Z,16.50
2022-09-23T15:23:01.120Z,16.49
2022-09-23T15:25:35.025Z,16.44
2022-09-23T15:28:17.257Z,16.37
2022-09-23T15:30:46.281Z,16.36
2022-09-23T15:33:16.328Z,16.38
2022-09-23T15:35:48.978Z,16.36
2022-09-23T15:38:17.326Z,16.37
2022-09-23T15:40:48.102Z,16.34
2022-09-23T15:43:21.007Z,16.37
2022-09-23T15:45:52.494Z,16.36
2022-09-23T15:48:23.973Z,16.33
2022-09-23T15:50:53.734Z,16.33
2022-09-23T15:53:26.515Z,16.33
2022-09-23T15:55:58.308Z,16.33
2022-09-23T15:58:27.445Z,16.33
2022-09-23T16:00:57.055Z,16.30
2022-09-23T16:03:28.027Z,16.29
2022-09-23T16:06:00.688Z,16.25
2022-09-23T16:08:32.173Z,16.23
2022-09-23T16:11:00.937Z,16.20
2022-09-23T16:13:29.899Z,16.14
2022-09-23T16:15:59.125Z,16.09
2022-09-23T16:18:28.194Z,16.02
2022-09-23T16:20:58.524Z,16.00
2022-09-23T16:23:36.517Z,15.93
2022-09-23T16:26:07.552Z,15.86
2022-09-23T16:28:36.320Z,15.76
2022-09-23T16:31:05.426Z,15.71
2022-09-23T16:33:34.509Z,15.63
2022-09-23T16:36:04.066Z,15.51
2022-09-23T16:38:33.399Z,15.45
2022-09-23T16:41:02.328Z,15.36
2022-09-23T16:43:34.315Z,15.25
2022-09-23T16:46:03.074Z,15.13
2022-09-23T16:48:31.861Z,15.03
2022-09-23T16:51:04.620Z,14.88
2022-09-23T16:53:34.592Z,14.77
2022-09-23T16:56:10.500Z,14.62
2022-09-23T16:58:40.623Z,14.58
2022-09-23T17:01:32.652Z,14.45
2022-09-23T17:04:01.920Z,14.37
2022-09-23T17:06:30.602Z,14.29
2022-09-23T17:08:59.278Z,14.19
2022-09-23T17:11:33.450Z,14.13
2022-09-23T17:14:02.859Z,14.12
2022-09-23T17:16:33.483Z,14.07
2022-09-23T17:19:08.263Z,13.98
2022-09-23T17:21:40.983Z,13.85
2022-09-23T17:24:09.764Z,13.80
2022-09-23T17:26:38.475Z,13.73
2022-09-23T17:29:09.593Z,13.71
2022-09-23T17:31:38.560Z,13.75
2022-09-23T17:34:07.359Z,13.68
2022-09-23T17:36:36.382Z,13.68
2022-09-23T17:39:06.539Z,13.61
2022-09-23T17:41:36.962Z,13.59
2022-09-23T17:44:07.520Z,13.59
2022-09-23T17:46:36.311Z,13.53
2022-09-23T17:49:06.248Z,13.48
2022-09-23T17:51:35.625Z,13.38
2022-09-23T17:54:04.871Z,13.36
2022-09-23T17:56:33.961Z,13.34
2022-09-23T17:59:04.747Z,13.34
2022-09-23T18:01:35.081Z,13.28
2022-09-23T18:04:05.080Z,13.19
2022-09-23T18:06:36.868Z,13.16
2022-09-23T18:09:07.882Z,13.15
2022-09-23T18:11:38.554Z,13.15
2022-09-23T18:14:11.745Z,13.09
2022-09-23T18:16:41.993Z,13.11
2022-09-23T18:19:14.209Z,13.11
2022-09-23T18:21:45.317Z,14.28
2022-09-23T18:27:05.961Z,13.97
2022-09-23T18:29:35.919Z,13.69
2022-09-23T18:32:04.794Z,13.58
2022-09-23T18:34:36.297Z,13.42
2022-09-23T18:37:14.967Z,13.26
2022-09-23T18:39:44.971Z,13.30
2022-09-23T18:42:14.543Z,13.28
2022-09-23T18:44:43.742Z,13.25
2022-09-23T18:47:33.758Z,13.28
2022-09-23T18:50:21.302Z,13.23
2022-09-23T18:52:51.484Z,13.24
2022-09-23T18:55:20.859Z,13.27
2022-09-23T18:57:49.875Z,13.26
2022-09-23T19:00:19.661Z,13.21
2022-09-23T19:02:49.303Z,13.22
2022-09-23T19:05:18.787Z,13.23
2022-09-23T19:07:48.069Z,13.28
2022-09-23T19:10:18.594Z,13.27
2022-09-23T19:12:47.768Z,13.19
2022-09-23T19:15:17.689Z,13.10
2022-09-23T19:17:46.534Z,13.10
2022-09-23T19:20:15.358Z,13.11
2022-09-23T19:22:48.563Z,13.10
2022-09-23T19:25:17.534Z,13.09
2022-09-23T19:27:48.597Z,13.07
2022-09-23T19:30:19.027Z,13.09
2022-09-23T19:32:49.582Z,13.07
2022-09-23T19:35:18.773Z,13.05
2022-09-23T19:37:49.858Z,13.03
2022-09-23T19:40:19.245Z,13.02
2022-09-23T19:42:48.634Z,13.00
2022-09-23T19:45:18.281Z,13.02
2022-09-23T19:47:47.458Z,13.03
2022-09-23T19:50:16.551Z,13.03
2022-09-23T19:52:46.210Z,13.09
2022-09-23T19:55:15.346Z,13.02
2022-09-23T19:57:44.360Z,13.03
2022-09-23T20:00:15.587Z,13.09
2022-09-23T20:02:45.159Z,13.11
2022-09-23T20:05:18.409Z,13.09
2022-09-23T20:07:49.717Z,13.08
2022-09-23T20:10:18.849Z,13.05
2022-09-23T20:12:48.491Z,12.99
2022-09-23T20:15:18.078Z,12.96
2022-09-23T20:17:47.143Z,12.95
2022-09-23T20:20:16.462Z,12.89
2022-09-23T20:22:47.420Z,12.83
2022-09-23T20:25:17.203Z,12.86
2022-09-23T20:27:53.150Z,12.83
2022-09-23T20:30:22.101Z,12.80
2022-09-23T20:32:51.614Z,12.87
2022-09-23T20:35:21.054Z,12.75
2022-09-23T20:37:49.998Z,12.70
2022-09-23T20:40:21.915Z,12.62
2022-09-23T20:42:50.825Z,12.73
2022-09-23T20:45:19.958Z,12.73
2022-09-23T20:47:49.192Z,12.70
2022-09-23T20:50:22.066Z,12.73
2022-09-23T20:52:52.570Z,12.72
2022-09-23T20:55:21.373Z,12.73
2022-09-23T20:57:50.095Z,12.70
2022-09-23T21:00:19.302Z,12.70
2022-09-23T21:02:48.055Z,12.68
2022-09-23T21:05:17.653Z,12.61
2022-09-23T21:07:47.464Z,12.58
2022-09-23T21:10:16.916Z,12.53
2022-09-23T21:12:49.885Z,12.54
2022-09-23T21:15:18.649Z,12.47
2022-09-23T21:17:47.337Z,12.35
2022-09-23T21:20:16.687Z,12.31
2022-09-23T21:22:48.958Z,12.28
2022-09-23T21:25:33.305Z,12.27
2022-09-23T21:28:03.395Z,12.30
2022-09-23T21:30:32.129Z,12.39
2022-09-23T21:33:01.358Z,12.42
2022-09-23T21:35:30.582Z,12.46
2022-09-23T21:38:01.348Z,12.51
2022-09-23T21:40:48.356Z,12.51
2022-09-23T21:43:17.122Z,12.47
2022-09-23T21:45:46.568Z,12.48
2022-09-23T21:48:15.279Z,12.51
2022-09-23T21:50:44.009Z,12.47
2022-09-23T21:53:12.877Z,12.49
2022-09-23T21:55:41.668Z,12.51
2022-09-23T21:58:10.659Z,12.51
2022-09-23T22:00:42.650Z,12.50
2022-09-23T22:03:11.995Z,12.52
2022-09-23T22:05:42.830Z,12.54
2022-09-23T22:08:12.251Z,12.50
2022-09-23T22:10:41.037Z,12.49
2022-09-23T22:13:12.927Z,12.54
2022-09-23T22:15:41.906Z,12.53
2022-09-23T22:18:11.224Z,12.48
2022-09-23T22:20:41.175Z,12.45
2022-09-23T22:23:10.014Z,12.46
2022-09-23T22:25:39.115Z,12.50
2022-09-23T22:28:26.106Z,12.43
2022-09-23T22:31:15.516Z,12.43
2022-09-23T22:33:44.291Z,12.44
2022-09-23T22:36:12.967Z,12.43
2022-09-23T22:38:42.311Z,12.44
2022-09-23T22:41:14.705Z,12.45
2022-09-23T22:43:43.449Z,12.43
2022-09-23T22:46:12.147Z,12.45
2022-09-23T22:48:40.891Z,12.45
2022-09-23T22:51:09.794Z,12.42
2022-09-23T22:53:38.602Z,12.39
2022-09-23T22:56:07.535Z,12.39
2022-09-23T22:58:36.467Z,12.32
2022-09-23T23:01:05.273Z,12.34
2022-09-23T23:03:34.632Z,12.34
2022-09-23T23:06:04.507Z,12.32
2022-09-23T23:08:33.382Z,12.32
2022-09-23T23:11:06.621Z,12.35
2022-09-23T23:13:36.144Z,12.36
2022-09-23T23:16:07.125Z,12.39
2022-09-23T23:18:38.394Z,12.40
2022-09-23T23:21:09.843Z,12.38
2022-09-23T23:23:40.334Z,12.39
2022-09-23T23:26:11.810Z,12.36
2022-09-23T23:28:41.269Z,12.34
2022-09-23T23:31:11.720Z,12.36
2022-09-23T23:33:41.746Z,12.38
2022-09-23T23:36:12.619Z,12.36
2022-09-23T23:38:44.132Z,12.35
2022-09-23T23:41:15.121Z,12.29
2022-09-23T23:43:45.384Z,12.24
2022-09-23T23:46:14.923Z,12.23
2022-09-23T23:48:44.891Z,12.22
2022-09-23T23:51:14.116Z,12.13
2022-09-23T23:53:43.601Z,12.12
2022-09-23T23:56:14.449Z,12.19
2022-09-23T23:58:43.960Z,12.23
